createdAt,value
2023-04-16T00:00:50.824Z,51.49
2023-04-16T00:03:17.647Z,51.47
2023-04-16T00:05:44.495Z,51.36
2023-04-16T00:08:11.374Z,51.22
2023-04-16T00:10:38.391Z,51.11
2023-04-16T00:13:05.125Z,50.97
2023-04-16T00:15:31.881Z,50.96
2023-04-16T00:17:58.589Z,50.75
2023-04-16T00:20:25.303Z,50.66
2023-04-16T00:22:51.927Z,50.60
2023-04-16T00:25:18.579Z,50.86
2023-04-16T00:27:45.580Z,51.29
2023-04-16T00:30:12.491Z,51.31
2023-04-16T00:32:39.828Z,51.46
2023-04-16T00:35:07.198Z,51.66
2023-04-16T00:37:33.778Z,51.81
2023-04-16T00:40:01.220Z,51.88
2023-04-16T00:42:27.878Z,51.92
2023-04-16T00:44:55.311Z,51.80
2023-04-16T00:47:22.027Z,52.10
2023-04-16T00:49:49.232Z,52.35
2023-04-16T00:52:16.042Z,52.25
2023-04-16T00:54:43.007Z,52.33
2023-04-16T00:57:10.684Z,52.29
2023-04-16T00:59:37.621Z,52.41
2023-04-16T01:02:04.582Z,52.58
2023-04-16T01:04:31.414Z,52.96
2023-04-16T01:06:58.110Z,53.15
2023-04-16T01:09:24.920Z,53.21
2023-04-16T01:11:51.652Z,53.39
2023-04-16T01:14:18.241Z,53.59
2023-04-16T01:16:45.739Z,53.54
2023-04-16T01:19:12.591Z,53.62
2023-04-16T01:21:39.196Z,53.58
2023-04-16T01:24:06.182Z,53.81
2023-04-16T01:26:33.283Z,53.66
2023-04-16T01:29:00.467Z,53.54
2023-04-16T01:31:27.269Z,53.63
2023-04-16T01:34:02.560Z,53.66
2023-04-16T01:36:29.241Z,53.43
2023-04-16T01:38:56.272Z,53.41
2023-04-16T01:41:23.722Z,53.48
2023-04-16T01:43:50.442Z,53.45
2023-04-16T01:46:32.243Z,53.45
2023-04-16T01:48:59.033Z,53.71
2023-04-16T01:51:26.028Z,53.80
2023-04-16T01:53:53.002Z,53.46
2023-04-16T01:56:19.982Z,53.38
2023-04-16T01:58:47.489Z,53.33
2023-04-16T02:01:15.430Z,53.12
2023-04-16T02:03:42.558Z,52.95
2023-04-16T02:06:09.486Z,52.88
2023-04-16T02:08:36.209Z,52.70
2023-04-16T02:11:03.177Z,52.68
2023-04-16T02:13:30.015Z,52.56
2023-04-16T02:15:56.880Z,52.46
2023-04-16T02:18:44.599Z,52.39
2023-04-16T02:21:11.733Z,52.43
2023-04-16T02:23:41.134Z,52.41
2023-04-16T02:26:07.857Z,52.63
2023-04-16T02:28:34.522Z,52.52
2023-04-16T02:31:01.724Z,52.57
2023-04-16T02:33:31.936Z,52.58
2023-04-16T02:36:01.444Z,52.69
2023-04-16T02:38:28.553Z,52.52
2023-04-16T02:40:55.190Z,52.62
2023-04-16T02:43:21.935Z,52.64
2023-04-16T02:45:48.686Z,52.81
2023-04-16T02:48:15.489Z,52.81
2023-04-16T02:50:42.065Z,52.92
2023-04-16T02:53:10.515Z,52.85
2023-04-16T02:55:37.349Z,53.30
2023-04-16T02:58:04.007Z,53.27
2023-04-16T03:00:31.300Z,53.31
2023-04-16T03:02:58.122Z,53.28
2023-04-16T03:05:25.248Z,53.26
2023-04-16T03:07:56.656Z,53.45
2023-04-16T03:10:24.162Z,53.48
2023-04-16T03:12:51.110Z,53.42
2023-04-16T03:15:17.906Z,53.39
2023-04-16T03:17:44.635Z,53.41
2023-04-16T03:20:11.673Z,53.38
2023-04-16T03:22:41.443Z,53.40
2023-04-16T03:25:08.674Z,53.44
2023-04-16T03:27:35.788Z,53.25
2023-04-16T03:30:03.434Z,53.30
2023-04-16T03:32:31.254Z,53.31
2023-04-16T03:34:57.966Z,53.42
2023-04-16T03:37:25.533Z,53.63
2023-04-16T03:39:52.652Z,53.95
2023-04-16T03:42:19.221Z,53.78
2023-04-16T03:44:45.953Z,53.68
2023-04-16T03:47:14.540Z,53.81
2023-04-16T03:49:41.211Z,53.86
2023-04-16T03:52:08.191Z,53.87
2023-04-16T03:54:34.976Z,54.03
2023-04-16T03:57:10.705Z,54.47
2023-04-16T03:59:41.358Z,54.68
2023-04-16T04:02:08.086Z,54.93
2023-04-16T04:04:34.869Z,55.07
2023-04-16T04:07:01.766Z,55.05
2023-04-16T04:09:28.634Z,55.30
2023-04-16T04:11:55.686Z,55.27
2023-04-16T04:14:22.711Z,55.65
2023-04-16T04:16:49.309Z,55.88
2023-04-16T04:19:16.019Z,55.87
2023-04-16T04:21:42.765Z,56.16
2023-04-16T04:24:09.527Z,56.44
2023-04-16T04:26:36.409Z,56.40
2023-04-16T04:29:03.333Z,56.46
2023-04-16T04:31:30.397Z,56.74
2023-04-16T04:33:57.108Z,56.92
2023-04-16T04:36:24.126Z,56.89
2023-04-16T04:38:51.587Z,57.00
2023-04-16T04:41:19.703Z,56.94
2023-04-16T04:43:47.533Z,56.97
2023-04-16T04:46:14.398Z,56.97
2023-04-16T04:48:41.160Z,57.14
2023-04-16T04:51:07.919Z,57.26
2023-04-16T04:53:34.905Z,57.12
2023-04-16T04:56:11.104Z,57.44
2023-04-16T04:58:39.061Z,57.35
2023-04-16T05:01:06.276Z,57.65
2023-04-16T05:03:33.103Z,57.45
2023-04-16T05:05:59.895Z,57.76
2023-04-16T05:08:27.126Z,57.99
2023-04-16T05:10:53.691Z,57.95
2023-04-16T05:13:20.464Z,58.15
2023-04-16T05:15:47.097Z,57.96
2023-04-16T05:18:13.702Z,57.78
2023-04-16T05:20:40.650Z,57.54
2023-04-16T05:23:07.266Z,57.43
2023-04-16T05:25:33.886Z,57.27
2023-04-16T05:28:00.515Z,57.22
2023-04-16T05:30:27.101Z,57.15
2023-04-16T05:32:53.865Z,56.93
2023-04-16T05:35:20.572Z,56.76
2023-04-16T05:37:47.207Z,56.55
2023-04-16T05:40:14.720Z,56.52
2023-04-16T05:42:41.505Z,56.47
2023-04-16T05:45:08.729Z,56.24
2023-04-16T05:47:35.656Z,56.14
2023-04-16T05:50:02.355Z,56.01
2023-04-16T05:52:29.008Z,55.76
2023-04-16T05:54:55.751Z,55.56
2023-04-16T05:57:22.618Z,55.42
2023-04-16T05:59:49.267Z,55.55
2023-04-16T06:02:16.042Z,55.29
2023-04-16T06:04:42.726Z,55.20
2023-04-16T06:07:09.293Z,55.17
2023-04-16T06:09:36.180Z,55.09
2023-04-16T06:12:02.909Z,54.94
2023-04-16T06:14:29.597Z,55.05
2023-04-16T06:16:56.428Z,54.88
2023-04-16T06:19:23.056Z,55.01
2023-04-16T06:21:50.530Z,55.14
2023-04-16T06:24:18.607Z,55.06
2023-04-16T06:26:45.219Z,55.08
2023-04-16T06:29:12.020Z,55.24
2023-04-16T06:31:38.962Z,55.03
2023-04-16T06:34:05.863Z,55.10
2023-04-16T06:36:32.738Z,55.18
2023-04-16T06:38:59.327Z,55.00
2023-04-16T06:41:26.811Z,54.88
2023-04-16T06:43:53.527Z,54.90
2023-04-16T06:46:20.117Z,54.91
2023-04-16T06:48:47.284Z,54.53
2023-04-16T06:51:13.941Z,54.16
2023-04-16T06:53:40.700Z,53.83
2023-04-16T06:56:07.995Z,53.53
2023-04-16T06:58:34.660Z,53.18
2023-04-16T07:01:02.826Z,52.86
2023-04-16T07:03:29.932Z,52.63
2023-04-16T07:05:57.054Z,52.70
2023-04-16T07:08:24.673Z,52.73
2023-04-16T07:10:51.712Z,53.02
2023-04-16T07:13:18.690Z,53.04
2023-04-16T07:15:45.420Z,53.11
2023-04-16T07:18:12.079Z,53.46
2023-04-16T07:20:38.754Z,53.01
2023-04-16T07:23:05.476Z,52.76
2023-04-16T07:25:32.100Z,52.76
2023-04-16T07:27:58.795Z,52.60
2023-04-16T07:30:25.452Z,52.36
2023-04-16T07:32:52.189Z,51.94
2023-04-16T07:35:18.941Z,51.89
2023-04-16T07:37:45.767Z,51.69
2023-04-16T07:40:12.568Z,51.67
2023-04-16T07:42:39.184Z,51.53
2023-04-16T07:45:06.418Z,50.96
2023-04-16T07:47:33.161Z,50.59
2023-04-16T07:50:00.050Z,50.22
2023-04-16T07:52:26.956Z,50.18
2023-04-16T07:54:53.613Z,49.22
2023-04-16T07:57:21.247Z,49.11
2023-04-16T07:59:47.831Z,48.86
2023-04-16T08:02:17.069Z,47.75
2023-04-16T08:04:44.569Z,48.08
2023-04-16T08:07:11.565Z,47.59
2023-04-16T08:09:47.875Z,47.01
2023-04-16T08:12:14.524Z,47.12
2023-04-16T08:14:41.670Z,46.14
2023-04-16T08:17:08.313Z,46.57
2023-04-16T08:19:34.939Z,46.30
2023-04-16T08:22:01.700Z,46.08
2023-04-16T08:24:28.304Z,43.73
2023-04-16T08:26:57.008Z,44.58
2023-04-16T08:29:27.061Z,43.11
2023-04-16T08:31:54.478Z,43.73
2023-04-16T08:34:21.639Z,44.06
2023-04-16T08:36:48.225Z,43.17
2023-04-16T08:39:14.870Z,42.82
2023-04-16T08:41:44.230Z,41.93
2023-04-16T08:44:25.567Z,41.94
2023-04-16T08:46:58.235Z,41.01
2023-04-16T08:49:28.471Z,41.50
2023-04-16T08:51:57.107Z,41.61
2023-04-16T08:54:34.664Z,40.94
2023-04-16T08:57:06.311Z,40.35
2023-04-16T08:59:34.191Z,40.00
2023-04-16T09:02:02.233Z,40.13
2023-04-16T09:04:29.905Z,40.39
2023-04-16T09:06:57.518Z,38.36
2023-04-16T09:09:26.732Z,38.52
2023-04-16T09:11:53.989Z,38.97
2023-04-16T09:14:22.051Z,39.20
2023-04-16T09:16:51.419Z,38.97
2023-04-16T09:19:18.045Z,39.59
2023-04-16T09:21:47.340Z,39.14
2023-04-16T09:24:14.312Z,39.18
2023-04-16T09:26:44.239Z,39.29
2023-04-16T09:29:11.170Z,39.91
2023-04-16T09:31:38.176Z,39.41
2023-04-16T09:34:09.407Z,39.56
2023-04-16T09:36:36.751Z,39.38
2023-04-16T09:39:03.915Z,38.81
2023-04-16T09:41:33.352Z,38.88
2023-04-16T09:44:02.230Z,39.04
2023-04-16T09:46:35.415Z,39.33
2023-04-16T09:49:09.555Z,39.13
2023-04-16T09:51:44.351Z,38.12
2023-04-16T09:54:11.266Z,37.87
2023-04-16T09:56:43.579Z,38.27
2023-04-16T09:59:20.215Z,38.09
2023-04-16T10:01:47.360Z,37.74
2023-04-16T10:04:14.241Z,37.84
2023-04-16T10:06:41.208Z,37.60
2023-04-16T10:09:12.361Z,36.84
2023-04-16T10:11:39.611Z,37.00
2023-04-16T10:14:06.406Z,36.51
2023-04-16T10:16:34.765Z,36.49
2023-04-16T10:19:02.177Z,37.00
2023-04-16T10:21:34.338Z,36.17
2023-04-16T10:24:01.810Z,35.45
2023-04-16T10:26:30.678Z,36.28
2023-04-16T10:28:59.034Z,35.82
2023-04-16T10:31:27.380Z,36.08
2023-04-16T10:33:54.782Z,34.77
2023-04-16T10:36:26.487Z,35.34
2023-04-16T10:38:56.782Z,35.60
2023-04-16T10:41:23.521Z,35.39
2023-04-16T10:43:51.076Z,34.88
2023-04-16T10:46:26.936Z,35.27
2023-04-16T10:48:56.068Z,35.05
2023-04-16T10:51:27.990Z,35.15
2023-04-16T10:53:56.525Z,35.00
2023-04-16T10:56:31.575Z,35.04
2023-04-16T10:58:58.280Z,34.72
2023-04-16T11:01:34.108Z,34.41
2023-04-16T11:04:19.679Z,34.81
2023-04-16T11:07:07.935Z,34.26
2023-04-16T11:09:53.581Z,34.17
2023-04-16T11:12:38.956Z,34.09
2023-04-16T11:15:13.823Z,34.10
2023-04-16T11:17:41.780Z,34.18
2023-04-16T11:20:19.832Z,33.97
2023-04-16T11:22:52.242Z,33.84
2023-04-16T11:25:26.706Z,33.80
2023-04-16T11:27:53.990Z,33.87
2023-04-16T11:30:32.102Z,33.72
2023-04-16T11:32:59.091Z,33.75
2023-04-16T11:35:25.996Z,33.57
2023-04-16T11:37:57.144Z,33.94
2023-04-16T11:40:24.527Z,33.90
2023-04-16T11:42:51.249Z,34.58
2023-04-16T11:45:19.462Z,34.92
2023-04-16T11:47:52.245Z,34.97
2023-04-16T11:50:27.734Z,34.98
2023-04-16T11:52:56.334Z,35.36
2023-04-16T11:55:23.963Z,35.37
2023-04-16T11:57:52.321Z,34.90
2023-04-16T12:00:23.718Z,34.25
2023-04-16T12:02:57.724Z,33.92
2023-04-16T12:05:35.169Z,34.28
2023-04-16T12:08:04.099Z,33.89
2023-04-16T12:10:35.047Z,33.85
2023-04-16T12:13:11.873Z,33.16
2023-04-16T12:15:46.576Z,32.49
2023-04-16T12:18:13.750Z,32.41
2023-04-16T12:20:43.645Z,32.27
2023-04-16T12:23:22.161Z,31.51
2023-04-16T12:25:50.030Z,32.17
2023-04-16T12:28:27.838Z,32.83
2023-04-16T12:30:54.472Z,33.08
2023-04-16T12:33:21.289Z,33.38
2023-04-16T12:35:48.041Z,34.13
2023-04-16T12:38:15.493Z,34.56
2023-04-16T12:40:42.422Z,34.88
2023-04-16T12:43:11.880Z,34.75
2023-04-16T12:45:39.801Z,34.09
2023-04-16T12:48:07.013Z,34.08
2023-04-16T12:50:33.635Z,33.97
2023-04-16T12:53:00.505Z,32.84
2023-04-16T12:55:27.129Z,33.37
2023-04-16T12:57:54.804Z,33.64
2023-04-16T13:00:21.624Z,33.82
2023-04-16T13:02:48.372Z,33.56
2023-04-16T13:05:16.704Z,33.68
2023-04-16T13:07:43.458Z,33.67
2023-04-16T13:10:10.469Z,33.85
2023-04-16T13:12:37.108Z,34.78
2023-04-16T13:15:04.399Z,35.12
2023-04-16T13:17:31.308Z,34.77
2023-04-16T13:19:57.963Z,34.48
2023-04-16T13:22:24.776Z,34.41
2023-04-16T13:24:51.411Z,33.88
2023-04-16T13:27:18.125Z,34.00
2023-04-16T13:29:44.932Z,34.18
2023-04-16T13:32:13.804Z,34.59
2023-04-16T13:34:40.816Z,35.02
2023-04-16T13:37:07.390Z,35.18
2023-04-16T13:39:34.035Z,35.56
2023-04-16T13:42:00.779Z,35.20
2023-04-16T13:44:27.360Z,34.73
2023-04-16T13:46:54.128Z,34.99
2023-04-16T13:49:20.814Z,35.21
2023-04-16T13:51:47.433Z,35.93
2023-04-16T13:54:14.025Z,35.93
2023-04-16T13:56:40.958Z,36.41
2023-04-16T13:59:08.303Z,36.66
2023-04-16T14:01:35.136Z,37.18
2023-04-16T14:04:06.802Z,37.22
2023-04-16T14:06:34.759Z,37.07
2023-04-16T14:09:02.023Z,37.19
2023-04-16T14:11:28.887Z,37.38
2023-04-16T14:13:55.589Z,37.56
2023-04-16T14:16:22.502Z,37.67
2023-04-16T14:18:49.203Z,37.68
2023-04-16T14:21:16.416Z,37.62
2023-04-16T14:23:43.080Z,37.80
2023-04-16T14:26:09.798Z,37.78
2023-04-16T14:28:36.495Z,37.97
2023-04-16T14:31:03.149Z,38.49
2023-04-16T14:33:29.856Z,38.51
2023-04-16T14:35:56.492Z,38.55
2023-04-16T14:38:23.152Z,38.42
2023-04-16T14:40:49.789Z,38.32
2023-04-16T14:43:16.409Z,38.44
2023-04-16T14:45:43.164Z,38.45
2023-04-16T14:48:09.872Z,38.43
2023-04-16T14:50:43.589Z,38.75
2023-04-16T14:53:11.850Z,38.75
2023-04-16T14:55:38.599Z,38.90
2023-04-16T14:58:05.737Z,38.93
2023-04-16T15:00:34.760Z,39.13
2023-04-16T15:03:01.656Z,39.38
2023-04-16T15:05:29.739Z,38.76
2023-04-16T15:07:56.808Z,38.87
2023-04-16T15:10:23.418Z,39.07
2023-04-16T15:12:49.999Z,39.06
2023-04-16T15:15:16.711Z,39.32
2023-04-16T15:17:43.834Z,39.36
2023-04-16T15:20:11.038Z,40.06
2023-04-16T15:22:38.392Z,39.99
2023-04-16T15:25:06.472Z,40.00
2023-04-16T15:27:33.100Z,40.53
2023-04-16T15:29:59.891Z,40.61
2023-04-16T15:32:26.701Z,40.79
2023-04-16T15:34:53.280Z,40.81
2023-04-16T15:37:19.973Z,40.67
2023-04-16T15:39:46.595Z,40.64
2023-04-16T15:42:13.374Z,40.74
2023-04-16T15:44:40.700Z,40.84
2023-04-16T15:47:08.772Z,40.64
2023-04-16T15:49:36.444Z,40.52
2023-04-16T15:52:03.492Z,40.82
2023-04-16T15:54:31.924Z,41.14
2023-04-16T15:56:59.099Z,41.06
2023-04-16T15:59:26.770Z,41.16
2023-04-16T16:01:53.734Z,41.34
2023-04-16T16:04:23.129Z,41.36
2023-04-16T16:06:50.902Z,41.62
2023-04-16T16:09:17.672Z,42.35
2023-04-16T16:11:44.468Z,42.11
2023-04-16T16:14:11.250Z,42.83
2023-04-16T16:16:37.956Z,42.81
2023-04-16T16:19:04.791Z,43.38
2023-04-16T16:21:32.602Z,43.78
2023-04-16T16:23:59.430Z,44.17
2023-04-16T16:26:26.163Z,44.36
2023-04-16T16:28:52.832Z,44.96
2023-04-16T16:31:19.610Z,45.96
2023-04-16T16:33:47.354Z,46.09
2023-04-16T16:36:14.412Z,46.17
2023-04-16T16:38:42.657Z,47.11
2023-04-16T16:41:09.490Z,47.92
2023-04-16T16:43:38.968Z,47.20
2023-04-16T16:46:07.407Z,47.02
2023-04-16T16:48:34.234Z,46.54
2023-04-16T16:51:01.188Z,45.46
2023-04-16T16:53:27.827Z,44.85
2023-04-16T16:55:54.440Z,45.24
2023-04-16T16:58:21.129Z,45.24
2023-04-16T17:00:48.013Z,45.20
2023-04-16T17:03:14.850Z,45.38
2023-04-16T17:05:41.667Z,45.47
2023-04-16T17:08:08.380Z,46.45
2023-04-16T17:10:35.884Z,47.09
2023-04-16T17:13:02.595Z,47.31
2023-04-16T17:15:29.266Z,47.80
2023-04-16T17:17:55.901Z,48.48
2023-04-16T17:20:22.621Z,48.63
2023-04-16T17:22:49.320Z,48.87
2023-04-16T17:25:16.097Z,48.62
2023-04-16T17:27:42.736Z,48.80
2023-04-16T17:30:09.858Z,49.50
2023-04-16T17:32:36.563Z,50.22
2023-04-16T17:35:04.414Z,50.56
2023-04-16T17:37:31.218Z,51.03
2023-04-16T17:39:57.926Z,51.24
2023-04-16T17:42:24.871Z,51.38
2023-04-16T17:44:51.971Z,52.12
2023-04-16T17:47:18.645Z,51.93
2023-04-16T17:49:45.499Z,51.79
2023-04-16T17:52:12.132Z,52.31
2023-04-16T17:54:38.848Z,52.10
2023-04-16T17:57:05.474Z,52.27
2023-04-16T17:59:32.060Z,52.43
2023-04-16T18:01:58.712Z,52.85
2023-04-16T18:04:25.524Z,53.14
2023-04-16T18:06:52.545Z,53.88
2023-04-16T18:09:20.281Z,53.73
2023-04-16T18:11:47.085Z,53.73
2023-04-16T18:14:16.908Z,53.67
2023-04-16T18:16:43.774Z,53.97
2023-04-16T18:19:10.418Z,54.09
2023-04-16T18:21:37.224Z,53.74
2023-04-16T18:24:04.038Z,54.31
2023-04-16T18:26:31.183Z,53.91
2023-04-16T18:28:59.384Z,53.03
2023-04-16T18:31:26.799Z,52.94
2023-04-16T18:33:57.829Z,53.65
2023-04-16T18:36:26.869Z,53.87
2023-04-16T18:41:24.130Z,53.87
2023-04-16T18:43:51.152Z,53.19
2023-04-16T18:46:17.886Z,53.85
2023-04-16T18:48:45.350Z,54.21
2023-04-16T18:51:14.239Z,54.45
2023-04-16T18:53:44.409Z,54.72
2023-04-16T18:56:11.707Z,54.92
2023-04-16T18:58:38.414Z,54.87
2023-04-16T19:01:07.933Z,55.09
2023-04-16T19:03:34.783Z,55.20
2023-04-16T19:06:02.045Z,55.13
2023-04-16T19:08:29.189Z,55.27
2023-04-16T19:10:55.909Z,55.55
2023-04-16T19:13:22.618Z,55.34
2023-04-16T19:15:49.208Z,55.76
2023-04-16T19:18:15.910Z,55.88
2023-04-16T19:20:42.498Z,55.81
2023-04-16T19:23:09.265Z,55.98
2023-04-16T19:25:36.654Z,55.95
2023-04-16T19:28:03.884Z,56.00
2023-04-16T19:30:30.994Z,56.09
2023-04-16T19:32:57.800Z,55.89
2023-04-16T19:35:24.534Z,55.98
2023-04-16T19:37:51.441Z,55.75
2023-04-16T19:40:18.092Z,55.34
2023-04-16T19:42:45.426Z,55.32
2023-04-16T19:45:12.190Z,55.27
2023-04-16T19:47:38.923Z,55.21
2023-04-16T19:50:06.551Z,55.14
2023-04-16T19:52:38.842Z,55.10
2023-04-16T19:55:06.753Z,54.94
2023-04-16T19:57:33.490Z,54.76
2023-04-16T20:02:27.012Z,54.75
2023-04-16T20:04:53.903Z,54.71
2023-04-16T20:07:20.625Z,54.78
2023-04-16T20:09:47.356Z,54.74
2023-04-16T20:12:14.490Z,54.87
2023-04-16T20:14:42.017Z,54.87
2023-04-16T20:17:10.230Z,54.95
2023-04-16T20:19:40.618Z,54.84
2023-04-16T20:22:07.399Z,54.84
2023-04-16T20:24:34.369Z,54.72
2023-04-16T20:27:01.905Z,54.62
2023-04-16T20:29:28.606Z,54.69
2023-04-16T20:31:55.299Z,54.71
2023-04-16T20:34:21.920Z,54.60
2023-04-16T20:36:48.548Z,54.48
2023-04-16T20:39:20.493Z,54.40
2023-04-16T20:41:56.469Z,54.44
2023-04-16T20:44:40.763Z,54.56
2023-04-16T20:47:08.696Z,54.45
2023-04-16T20:49:35.541Z,54.43
2023-04-16T20:52:02.531Z,54.38
2023-04-16T20:54:32.226Z,54.49
2023-04-16T20:56:59.349Z,54.40
2023-04-16T20:59:26.141Z,54.32
2023-04-16T21:01:52.884Z,54.14
2023-04-16T21:04:19.723Z,54.26
2023-04-16T21:06:46.991Z,54.13
2023-04-16T21:09:13.920Z,54.17
2023-04-16T21:11:40.797Z,54.08
2023-04-16T21:14:07.372Z,54.10
2023-04-16T21:16:34.130Z,54.02
2023-04-16T21:19:00.936Z,54.23
2023-04-16T21:21:27.601Z,54.13
2023-04-16T21:23:54.252Z,54.18
2023-04-16T21:26:20.948Z,54.21
2023-04-16T21:28:47.519Z,54.30
2023-04-16T21:31:14.205Z,54.23
2023-04-16T21:33:40.784Z,54.12
2023-04-16T21:36:07.640Z,54.10
2023-04-16T21:38:34.387Z,54.16
2023-04-16T21:41:01.681Z,54.01
2023-04-16T21:43:30.664Z,54.10
2023-04-16T21:45:58.028Z,54.11
2023-04-16T21:48:25.340Z,54.15
2023-04-16T21:50:59.861Z,54.26
2023-04-16T21:53:28.135Z,54.24
2023-04-16T21:55:54.820Z,54.24
2023-04-16T21:58:21.473Z,54.46
2023-04-16T22:00:48.343Z,54.29
2023-04-16T22:03:17.408Z,54.29
2023-04-16T22:05:45.099Z,54.28
2023-04-16T22:10:43.892Z,54.47
2023-04-16T22:13:12.764Z,54.27
2023-04-16T22:15:39.954Z,54.51
2023-04-16T22:18:06.707Z,54.48
2023-04-16T22:20:39.135Z,54.56
2023-04-16T22:23:06.919Z,54.60
2023-04-16T22:25:33.761Z,54.60
2023-04-16T22:28:03.742Z,54.51
2023-04-16T22:30:30.434Z,54.48
2023-04-16T22:32:57.819Z,54.44
2023-04-16T22:35:24.535Z,54.66
2023-04-16T22:37:51.173Z,54.64
2023-04-16T22:40:18.287Z,54.53
2023-04-16T22:42:45.025Z,54.68
2023-04-16T22:45:12.729Z,54.79
2023-04-16T22:47:39.729Z,55.20
2023-04-16T22:50:07.317Z,55.13
2023-04-16T22:52:33.969Z,55.19
2023-04-16T22:55:00.601Z,55.27
2023-04-16T22:57:27.229Z,55.22
2023-04-16T22:59:54.126Z,55.16
2023-04-16T23:02:21.501Z,55.32
2023-04-16T23:04:48.332Z,55.25
2023-04-16T23:07:16.349Z,55.20
2023-04-16T23:09:43.068Z,55.10
2023-04-16T23:12:09.661Z,55.22
2023-04-16T23:14:37.039Z,55.27
2023-04-16T23:17:03.749Z,55.46
2023-04-16T23:19:31.305Z,55.42
2023-04-16T23:21:58.003Z,55.55
2023-04-16T23:24:24.741Z,55.43
2023-04-16T23:26:52.505Z,55.33
2023-04-16T23:29:20.358Z,55.42
2023-04-16T23:31:47.303Z,55.24
2023-04-16T23:34:14.117Z,55.10
2023-04-16T23:36:40.894Z,55.10
2023-04-16T23:39:07.550Z,55.24
2023-04-16T23:41:34.735Z,55.21
2023-04-16T23:44:01.480Z,55.15
2023-04-16T23:46:28.337Z,55.12
2023-04-16T23:48:55.509Z,55.16
2023-04-16T23:51:22.291Z,55.16
2023-04-16T23:53:49.093Z,55.01
2023-04-16T23:56:15.953Z,55.09
2023-04-16T23:58:42.710Z,55.12
